Time;durP1;ratioP1;P1;durP2;ratioP2;P2;SDS_P1;SDS_P2;PMS_P1;PMS_P2;Temp;Humidity;BMP_temperature;BMP_pressure;BME280_temperature;BME280_humidity;BME280_pressure;Samples;Min_cycle;Max_cycle;Signal;HPM_P1;HPM_P2
2023/01/07 00:00:51;;;;;;;4.25;3.20;;;;;;;7.06;55.81;95794.00;4970095;28;20078;-81
2023/01/07 00:03:16;;;;;;;2.25;2.08;;;;;;;6.77;56.97;95803.81;4971905;28;20501;-81
2023/01/07 00:05:42;;;;;;;2.58;1.98;;;;;;;7.37;54.91;95793.63;4953399;28;20087;-80
2023/01/07 00:08:08;;;;;;;5.47;4.70;;;;;;;7.61;54.79;95796.59;4951224;28;20327;-81
2023/01/07 00:10:34;;;;;;;1.67;1.58;;;;;;;7.32;55.09;95793.25;4967739;28;20079;-81
2023/01/07 00:12:59;;;;;;;2.20;1.70;;;;;;;6.91;56.32;95795.53;4967646;28;20134;-82
2023/01/07 00:15:24;;;;;;;5.43;4.13;;;;;;;7.33;54.80;95788.75;4967891;28;20526;-80
2023/01/07 00:17:50;;;;;;;5.00;3.72;;;;;;;7.47;54.28;95790.88;4969643;28;20612;-82
2023/01/07 00:20:15;;;;;;;2.55;2.35;;;;;;;7.20;55.40;95794.44;4964955;28;20064;-81
2023/01/07 00:22:41;;;;;;;1.80;1.70;;;;;;;7.21;54.82;95790.84;4972125;28;20065;-80
2023/01/07 00:25:06;;;;;;;2.05;1.60;;;;;;;7.43;54.75;95784.22;4982240;28;20094;-82
2023/01/07 00:27:32;;;;;;;1.58;1.50;;;;;;;6.66;55.42;95788.16;4969748;28;20140;-82
2023/01/07 00:29:57;;;;;;;2.50;2.30;;;;;;;7.44;54.97;95777.13;4969517;28;20090;-83
2023/01/07 00:32:46;;;;;;;3.53;2.13;;;;;;;7.64;53.07;95773.28;4966313;28;20055;-80
2023/01/07 00:35:21;;;;;;;1.90;1.80;;;;;;;7.73;53.67;95776.81;4973115;28;20535;-82
2023/01/07 00:37:48;;;;;;;2.47;1.60;;;;;;;7.61;54.50;95776.22;4954734;28;20371;-82
2023/01/07 00:40:14;;;;;;;3.53;2.92;;;;;;;7.06;55.88;95782.56;4951995;28;20068;-81
2023/01/07 00:43:00;;;;;;;2.03;1.70;;;;;;;7.65;53.17;95759.03;4935764;28;20063;-79
2023/01/07 00:45:26;;;;;;;3.90;3.03;;;;;;;7.59;54.45;95774.72;4954908;28;20080;-83
2023/01/07 00:47:52;;;;;;;2.05;1.85;;;;;;;7.52;54.19;95767.38;4969444;28;20103;-80
2023/01/07 00:50:25;;;;;;;3.25;2.60;;;;;;;7.27;54.07;95759.28;4969332;28;20072;-80
2023/01/07 00:52:51;;;;;;;2.38;1.80;;;;;;;7.52;54.39;95763.94;4953323;28;20589;-81
2023/01/07 00:55:16;;;;;;;1.95;1.80;;;;;;;6.53;56.37;95766.53;4950992;28;20115;-81
2023/01/07 00:57:42;;;;;;;2.67;1.75;;;;;;;7.62;54.11;95759.34;4967030;28;20091;-80
2023/01/07 01:00:09;;;;;;;2.10;1.95;;;;;;;7.39;54.54;95764.31;4950246;28;20070;-80
2023/01/07 01:02:34;;;;;;;2.08;1.88;;;;;;;7.87;53.20;95761.34;4966750;28;20092;-81
2023/01/07 01:05:00;;;;;;;2.17;1.98;;;;;;;7.46;54.56;95757.44;4961283;28;20070;-82
2023/01/07 01:07:25;;;;;;;4.13;3.42;;;;;;;7.61;54.48;95759.50;4952789;28;20046;-82
2023/01/07 01:09:51;;;;;;;2.50;2.30;;;;;;;7.83;53.05;95752.03;4934359;28;20078;-81
2023/01/07 01:12:16;;;;;;;2.00;1.80;;;;;;;7.57;53.37;95745.75;4950700;28;20050;-82
2023/01/07 01:14:41;;;;;;;3.03;2.58;;;;;;;7.95;52.84;95745.47;4951789;28;20052;-82
2023/01/07 01:17:07;;;;;;;3.20;2.90;;;;;;;8.02;52.91;95751.81;4953337;28;20082;-81
2023/01/07 01:19:32;;;;;;;2.83;2.15;;;;;;;6.96;54.43;95750.88;4967564;28;20051;-81
2023/01/07 01:21:58;;;;;;;2.53;1.92;;;;;;;7.05;54.50;95750.00;4955081;28;20740;-81
2023/01/07 01:24:23;;;;;;;3.85;2.53;;;;;;;7.74;53.59;95740.53;4952541;28;20240;-83
2023/01/07 01:26:49;;;;;;;3.67;3.15;;;;;;;7.92;53.17;95736.03;4981524;28;20049;-81
2023/01/07 01:29:14;;;;;;;5.80;3.03;;;;;;;7.68;53.11;95734.03;4952494;28;20073;-82
2023/01/07 01:31:40;;;;;;;3.65;3.00;;;;;;;7.99;53.05;95738.88;4981385;28;20626;-81
2023/01/07 01:34:05;;;;;;;2.30;2.05;;;;;;;7.74;53.14;95729.94;4968370;28;20129;-82
2023/01/07 01:36:30;;;;;;;5.38;2.63;;;;;;;7.88;52.59;95731.19;4968092;28;20335;-81
2023/01/07 01:38:56;;;;;;;1.95;1.77;;;;;;;8.44;51.83;95738.72;4970243;28;20087;-81
2023/01/07 01:41:21;;;;;;;2.42;2.10;;;;;;;8.32;52.26;95732.88;4963677;28;20112;-82
2023/01/07 01:43:47;;;;;;;3.08;2.20;;;;;;;8.51;51.79;95741.56;4962774;28;20058;-83
2023/01/07 01:46:31;;;;;;;3.70;3.13;;;;;;;8.38;52.13;95729.59;4967587;28;20138;-82
2023/01/07 01:49:27;;;;;;;3.00;2.33;;;;;;;8.65;51.67;95740.94;4978380;28;20078;-80
2023/01/07 01:52:08;;;;;;;9.63;2.25;;;;;;;8.34;51.24;95732.72;4952671;28;20040;-81
2023/01/07 01:54:33;;;;;;;2.20;2.00;;;;;;;8.62;51.46;95725.31;4948921;28;20104;-82
2023/01/07 01:57:01;;;;;;;3.65;2.30;;;;;;;8.76;51.37;95729.16;4948926;28;20522;-81
2023/01/07 01:59:28;;;;;;;2.08;1.98;;;;;;;8.72;51.35;95735.78;4952566;28;20053;-82
2023/01/07 02:01:53;;;;;;;4.03;3.63;;;;;;;8.57;51.85;95728.47;4936555;28;20072;-79
2023/01/07 02:04:20;;;;;;;2.30;1.98;;;;;;;8.40;51.14;95726.78;4967778;28;20052;-79
2023/01/07 02:07:03;;;;;;;2.42;2.22;;;;;;;8.46;51.10;95723.44;4937711;28;20069;-79
2023/01/07 02:09:29;;;;;;;2.00;1.90;;;;;;;8.69;50.80;95722.84;4970052;28;20077;-79
2023/01/07 02:12:11;;;;;;;4.90;3.78;;;;;;;8.46;51.55;95726.09;4937383;28;20089;-79
2023/01/07 02:14:54;;;;;;;2.30;2.10;;;;;;;8.66;50.56;95725.81;4964796;28;20129;-79
2023/01/07 02:17:44;;;;;;;4.15;3.72;;;;;;;8.59;51.16;95724.81;4970439;28;20076;-79
2023/01/07 02:20:23;;;;;;;2.03;1.92;;;;;;;8.76;50.86;95720.34;4985454;28;20060;-79
2023/01/07 02:23:10;;;;;;;3.03;2.30;;;;;;;8.64;50.33;95722.50;4966458;28;20078;-79
2023/01/07 02:25:57;;;;;;;2.10;1.95;;;;;;;8.54;50.20;95726.13;4980507;28;20136;-79
2023/01/07 02:28:45;;;;;;;2.20;2.10;;;;;;;8.44;50.15;95713.00;4968600;28;20165;-79
2023/01/07 02:31:45;;;;;;;2.00;1.90;;;;;;;7.95;51.57;95708.38;4970011;28;20042;-80
2023/01/07 02:34:30;;;;;;;4.18;2.40;;;;;;;8.18;51.58;95716.59;4968527;28;20092;-79
2023/01/07 02:37:17;;;;;;;3.45;2.20;;;;;;;8.65;50.54;95711.72;4967790;28;20118;-79
2023/01/07 02:40:39;;;;;;;2.60;2.40;;;;;;;8.69;50.62;95705.09;4971310;28;20050;-79
2023/01/07 02:43:20;;;;;;;2.45;2.08;;;;;;;8.72;50.21;95709.25;4927766;29;20197;-79
2023/01/07 02:45:52;;;;;;;4.07;2.63;;;;;;;8.78;49.72;95700.59;4977121;28;20084;-79
2023/01/07 02:48:18;;;;;;;2.40;2.20;;;;;;;8.84;49.58;95706.28;4949562;28;20056;-79
2023/01/07 02:50:44;;;;;;;3.78;2.47;;;;;;;8.47;50.39;95703.06;4936801;28;20051;-79
2023/01/07 02:53:10;;;;;;;3.55;2.75;;;;;;;8.54;50.93;95701.44;4984623;28;20141;-79
2023/01/07 02:55:56;;;;;;;4.20;2.50;;;;;;;8.71;50.15;95701.44;4938120;28;20042;-79
2023/01/07 02:58:21;;;;;;;3.03;2.78;;;;;;;8.70;50.19;95697.94;4969815;28;20072;-79
2023/01/07 03:01:06;;;;;;;4.63;2.97;;;;;;;8.63;50.49;95696.94;4984172;28;20070;-79
2023/01/07 03:03:41;;;;;;;3.42;3.13;;;;;;;8.45;50.44;95700.56;4965821;28;20303;-79
2023/01/07 03:06:44;;;;;;;3.58;3.28;;;;;;;8.35;50.78;95697.22;4981068;28;20078;-80
2023/01/07 03:09:22;;;;;;;3.45;3.15;;;;;;;8.22;51.11;95697.69;4952910;28;20103;-79
2023/01/07 03:11:56;;;;;;;6.07;3.20;;;;;;;8.26;51.13;95699.03;4972499;28;20039;-79
2023/01/07 03:14:25;;;;;;;2.70;2.50;;;;;;;8.49;50.83;95695.75;4971421;28;20085;-79
2023/01/07 03:16:54;;;;;;;;;;;;;;;8.44;50.83;95690.97;4984095;28;20455;-79
2023/01/07 03:19:30;;;;;;;4.10;2.80;;;;;;;8.54;50.47;95690.81;4992469;28;19997;-79
2023/01/07 03:21:55;;;;;;;2.70;2.50;;;;;;;8.67;50.26;95683.19;4957094;28;20087;-79
2023/01/07 03:24:21;;;;;;;3.42;3.08;;;;;;;8.42;50.73;95687.63;4956480;28;20047;-79
2023/01/07 03:26:47;;;;;;;3.67;3.00;;;;;;;8.49;50.63;95685.16;4959014;28;20727;-79
2023/01/07 03:29:13;;;;;;;4.63;3.38;;;;;;;7.92;51.46;95679.50;4938269;28;20076;-79
2023/01/07 03:31:42;;;;;;;4.20;2.83;;;;;;;8.35;50.60;95682.16;4940046;28;20089;-79
2023/01/07 03:34:15;;;;;;;3.78;3.20;;;;;;;8.45;50.57;95684.66;4956448;28;20071;-79
2023/01/07 03:36:47;;;;;;;4.43;2.92;;;;;;;8.16;50.57;95676.13;4950029;28;20352;-79
2023/01/07 03:39:13;;;;;;;3.33;3.03;;;;;;;8.09;51.01;95679.59;4956843;28;20069;-79
2023/01/07 03:44:22;;;;;;;6.45;3.13;;;;;;;7.16;52.99;95682.72;4960716;28;20334;-79
2023/01/07 03:46:48;;;;;;;3.72;3.40;;;;;;;7.48;53.26;95677.81;4972646;28;20064;-79
2023/01/07 03:49:13;;;;;;;3.85;3.45;;;;;;;7.71;52.70;95675.44;4960135;28;20077;-79
2023/01/07 03:51:38;;;;;;;3.75;3.30;;;;;;;8.12;51.29;95671.28;4976834;28;20053;-79
2023/01/07 03:54:04;;;;;;;3.40;3.10;;;;;;;8.39;50.69;95669.38;4983658;28;20508;-79
2023/01/07 03:56:29;;;;;;;3.72;3.40;;;;;;;7.11;53.81;95674.41;4959099;28;20061;-79
2023/01/07 03:58:55;;;;;;;3.75;3.28;;;;;;;7.38;53.35;95669.97;4974053;28;20531;-79
2023/01/07 04:01:20;;;;;;;4.22;3.15;;;;;;;7.91;51.68;95659.31;4971748;28;20087;-79
2023/01/07 04:03:45;;;;;;;3.85;3.20;;;;;;;8.04;51.75;95661.50;4975620;28;20064;-79
2023/01/07 04:06:11;;;;;;;3.80;3.40;;;;;;;7.05;53.54;95665.28;4984780;28;20546;-79
2023/01/07 04:08:36;;;;;;;3.80;3.25;;;;;;;5.67;57.33;95664.41;4985838;28;20146;-79
2023/01/07 04:11:02;;;;;;;3.78;3.47;;;;;;;5.70;57.31;95663.28;4974940;28;20044;-79
2023/01/07 04:13:27;;;;;;;4.57;3.47;;;;;;;6.69;55.33;95660.00;4940531;28;20153;-79
2023/01/07 04:15:53;;;;;;;3.58;3.28;;;;;;;7.36;54.22;95656.88;4976525;28;20191;-79
2023/01/07 04:18:18;;;;;;;6.35;3.65;;;;;;;7.63;52.47;95644.44;4958243;28;20078;-79
2023/01/07 04:20:45;;;;;;;4.30;3.70;;;;;;;7.68;51.96;95645.78;4939693;28;20084;-79
2023/01/07 04:23:11;;;;;;;4.10;3.20;;;;;;;7.75;52.09;95650.25;4945689;28;20442;-79
2023/01/07 04:25:36;;;;;;;5.75;3.60;;;;;;;6.37;54.64;95651.63;4984256;28;20079;-79
2023/01/07 04:28:02;;;;;;;4.13;3.58;;;;;;;7.52;52.88;95624.31;4983300;28;20069;-79
2023/01/07 04:30:27;;;;;;;4.93;3.22;;;;;;;7.93;51.47;95636.13;4936577;28;20093;-78
2023/01/07 04:32:53;;;;;;;5.15;3.17;;;;;;;7.85;51.96;95625.50;4971408;28;20106;-79
2023/01/07 04:35:18;;;;;;;3.60;3.20;;;;;;;7.43;53.13;95622.63;4956474;28;20468;-79
2023/01/07 04:37:43;;;;;;;5.28;3.22;;;;;;;7.26;53.16;95619.91;4974177;28;20121;-79
2023/01/07 04:40:09;;;;;;;4.10;3.40;;;;;;;6.60;54.70;95622.91;4972351;28;20088;-79
2023/01/07 04:42:34;;;;;;;3.63;3.33;;;;;;;7.22;53.53;95612.44;4957720;28;20069;-78
2023/01/07 04:45:00;;;;;;;4.20;3.40;;;;;;;6.08;56.80;95620.91;4970895;28;20688;-79
2023/01/07 04:47:25;;;;;;;4.22;3.50;;;;;;;6.71;55.31;95613.09;4943700;28;20097;-78
2023/01/07 04:49:50;;;;;;;3.28;2.97;;;;;;;7.22;53.65;95612.44;4958976;28;20423;-79
2023/01/07 04:52:16;;;;;;;3.30;2.90;;;;;;;7.66;52.52;95611.47;4983224;28;20066;-79
2023/01/07 04:54:42;;;;;;;3.25;2.95;;;;;;;7.43;52.96;95601.44;4974438;28;20081;-78
2023/01/07 04:57:08;;;;;;;4.93;2.90;;;;;;;6.41;55.61;95610.66;4974484;28;20724;-79
2023/01/07 04:59:33;;;;;;;3.00;2.70;;;;;;;7.10;53.89;95601.25;4972516;28;20054;-79
2023/01/07 05:01:59;;;;;;;3.00;2.75;;;;;;;6.83;53.79;95603.09;4985834;28;20087;-79
2023/01/07 05:04:24;;;;;;;3.15;2.85;;;;;;;7.15;53.44;95596.34;4970563;28;20079;-79
2023/01/07 05:06:50;;;;;;;5.65;3.13;;;;;;;6.42;55.38;95598.28;4954661;28;20055;-79
2023/01/07 05:09:15;;;;;;;6.25;3.30;;;;;;;7.12;53.91;95588.72;4973549;28;20070;-79
2023/01/07 05:11:40;;;;;;;5.55;3.40;;;;;;;7.28;53.28;95586.13;4957040;28;20510;-79
2023/01/07 05:14:06;;;;;;;3.60;3.30;;;;;;;7.62;52.77;95583.66;4956075;28;20083;-79
2023/01/07 05:16:32;;;;;;;7.03;3.25;;;;;;;7.35;52.48;95580.22;4972159;28;20046;-79
2023/01/07 05:18:57;;;;;;;4.10;3.70;;;;;;;6.32;55.00;95578.03;4940029;28;20185;-79
2023/01/07 05:21:22;;;;;;;3.85;3.45;;;;;;;6.55;55.73;95579.38;4954458;28;20082;-79
2023/01/07 05:23:48;;;;;;;3.72;3.42;;;;;;;6.87;54.95;95572.69;4982139;28;20055;-79
2023/01/07 05:26:13;;;;;;;6.47;3.83;;;;;;;6.65;54.28;95569.56;4952226;28;20107;-79
2023/01/07 05:28:39;;;;;;;3.70;3.40;;;;;;;7.18;53.32;95564.25;4972156;28;20082;-79
2023/01/07 05:31:04;;;;;;;5.68;3.75;;;;;;;6.86;53.69;95574.50;4935497;28;20041;-79
2023/01/07 05:33:29;;;;;;;3.90;3.15;;;;;;;7.00;53.97;95574.91;4980551;28;20076;-79
2023/01/07 05:35:55;;;;;;;3.88;3.58;;;;;;;6.08;56.81;95574.19;4965413;28;20843;-79
2023/01/07 05:38:20;;;;;;;6.07;3.65;;;;;;;6.22;56.18;95570.16;4954008;28;20177;-79
2023/01/07 05:40:47;;;;;;;3.50;3.20;;;;;;;6.72;54.50;95567.13;4953431;28;20089;-79
2023/01/07 05:43:13;;;;;;;3.63;3.33;;;;;;;7.07;53.03;95553.94;4938061;28;20055;-79
2023/01/07 05:45:38;;;;;;;3.80;3.17;;;;;;;7.30;52.97;95553.38;4953857;28;20113;-79
2023/01/07 05:48:04;;;;;;;3.50;3.20;;;;;;;7.59;51.80;95546.88;4968175;28;20058;-79
2023/01/07 05:50:29;;;;;;;3.75;3.40;;;;;;;7.65;51.91;95549.69;4968842;28;20072;-79
2023/01/07 05:52:55;;;;;;;3.35;3.05;;;;;;;7.56;51.88;95553.31;4953539;28;20084;-79
2023/01/07 05:55:20;;;;;;;3.58;3.28;;;;;;;7.74;51.41;95549.72;4967576;28;20054;-79
2023/01/07 05:57:45;;;;;;;3.95;3.45;;;;;;;7.54;51.61;95548.19;4951545;28;20491;-79
2023/01/07 06:00:11;;;;;;;3.63;3.33;;;;;;;7.21;52.50;95548.03;4951699;28;20062;-79
2023/01/07 06:02:37;;;;;;;4.22;3.58;;;;;;;7.60;51.65;95543.22;4982635;28;20086;-79
2023/01/07 06:05:03;;;;;;;4.03;3.63;;;;;;;6.88;53.92;95546.03;4982387;28;20078;-79
2023/01/07 06:07:28;;;;;;;3.90;3.50;;;;;;;7.14;52.67;95541.72;4974307;28;20648;-79
2023/01/07 06:09:54;;;;;;;4.10;3.70;;;;;;;7.47;52.04;95541.84;4957317;28;20080;-79
2023/01/07 06:12:19;;;;;;;5.05;3.28;;;;;;;7.22;52.63;95538.28;4982872;28;20364;-79
2023/01/07 06:14:44;;;;;;;5.75;3.88;;;;;;;7.16;53.05;95539.75;4968097;28;20415;-79
2023/01/07 06:17:10;;;;;;;3.60;3.30;;;;;;;7.25;52.71;95533.47;4970540;28;20072;-79
2023/01/07 06:19:35;;;;;;;3.40;3.10;;;;;;;6.93;53.54;95524.41;4982691;28;20050;-79
2023/01/07 06:22:01;;;;;;;5.30;3.70;;;;;;;6.17;55.67;95524.03;4953063;28;20086;-79
2023/01/07 06:24:26;;;;;;;4.80;4.00;;;;;;;6.84;53.95;95526.16;4966853;28;20491;-79
2023/01/07 06:26:52;;;;;;;3.55;3.20;;;;;;;7.45;52.51;95522.63;4982684;28;20519;-79
2023/01/07 06:29:17;;;;;;;3.95;3.42;;;;;;;7.70;52.21;95524.53;4951826;28;20078;-79
2023/01/07 06:31:42;;;;;;;4.10;3.45;;;;;;;7.60;52.17;95520.22;4956655;28;20055;-79
2023/01/07 06:34:08;;;;;;;4.93;4.10;;;;;;;7.71;51.14;95521.72;4950856;28;20125;-80
2023/01/07 06:36:33;;;;;;;4.07;3.67;;;;;;;7.41;52.44;95516.84;4954446;28;20048;-79
2023/01/07 06:38:59;;;;;;;3.50;3.20;;;;;;;7.85;50.92;95503.56;4981743;28;20278;-79
2023/01/07 06:41:24;;;;;;;4.10;3.70;;;;;;;7.90;50.42;95509.19;4936664;28;20096;-79
2023/01/07 06:43:49;;;;;;;6.03;3.70;;;;;;;7.85;50.90;95506.22;4967399;28;20454;-79
2023/01/07 06:46:15;;;;;;;4.85;4.00;;;;;;;7.69;51.47;95499.88;4954278;28;20080;-79
2023/01/07 06:48:40;;;;;;;4.57;3.60;;;;;;;7.64;50.70;95499.50;4953359;28;20438;-79
2023/01/07 06:51:06;;;;;;;5.55;3.63;;;;;;;7.61;51.71;95499.81;4984404;28;20048;-79
2023/01/07 06:53:31;;;;;;;3.67;3.38;;;;;;;7.66;50.99;95492.25;4948158;28;20101;-79
2023/01/07 06:55:56;;;;;;;5.40;3.70;;;;;;;7.40;50.85;95494.00;4971793;28;20074;-79
2023/01/07 06:58:22;;;;;;;3.97;3.58;;;;;;;7.60;51.62;95485.78;4968324;28;20099;-79
2023/01/07 07:00:47;;;;;;;3.60;3.30;;;;;;;7.66;50.91;95486.94;4963808;28;20086;-79
2023/01/07 07:03:13;;;;;;;3.85;3.50;;;;;;;7.45;51.27;95484.75;4968229;28;20069;-79
2023/01/07 07:05:38;;;;;;;3.70;3.40;;;;;;;7.64;50.70;95488.91;4968722;28;20090;-79
2023/01/07 07:08:04;;;;;;;3.97;3.53;;;;;;;7.52;51.06;95483.91;4939429;28;20061;-79
2023/01/07 07:10:30;;;;;;;4.15;3.50;;;;;;;7.69;50.42;95483.13;4950348;28;20077;-79
2023/01/07 07:12:55;;;;;;;4.88;3.63;;;;;;;7.47;51.13;95483.59;4966205;28;20068;-79
2023/01/07 07:15:20;;;;;;;3.58;3.28;;;;;;;7.62;51.31;95488.25;4966560;28;20051;-79
2023/01/07 07:17:46;;;;;;;4.97;3.70;;;;;;;7.66;50.95;95485.09;4950517;28;20571;-79
2023/01/07 07:20:11;;;;;;;4.15;3.75;;;;;;;7.70;51.19;95477.66;4957601;28;20057;-79
2023/01/07 07:22:37;;;;;;;4.57;3.90;;;;;;;7.76;51.19;95476.19;4951056;28;20276;-79
2023/01/07 07:25:03;;;;;;;3.67;3.10;;;;;;;7.91;50.19;95476.41;4950189;28;20084;-79
2023/01/07 07:27:28;;;;;;;4.00;3.70;;;;;;;7.85;50.71;95471.75;4948407;28;20052;-79
2023/01/07 07:29:53;;;;;;;3.50;3.20;;;;;;;7.66;50.87;95471.03;4951884;28;20079;-79
2023/01/07 07:32:19;;;;;;;4.72;3.80;;;;;;;7.95;50.54;95467.13;4933854;28;20087;-78
2023/01/07 07:34:44;;;;;;;4.75;3.90;;;;;;;7.76;50.47;95473.53;4949049;28;20056;-79
2023/01/07 07:37:10;;;;;;;4.13;3.58;;;;;;;7.74;50.33;95463.09;4934265;28;20333;-80
2023/01/07 07:39:35;;;;;;;3.55;3.00;;;;;;;7.04;52.43;95466.88;4966694;28;20046;-79
2023/01/07 07:42:02;;;;;;;4.55;3.75;;;;;;;7.08;52.36;95468.22;4952756;28;20095;-79
2023/01/07 07:44:28;;;;;;;4.70;4.20;;;;;;;6.90;52.38;95471.78;4980067;28;20440;-79
2023/01/07 07:46:53;;;;;;;5.05;3.78;;;;;;;6.78;52.35;95465.94;4953478;28;20109;-79
2023/01/07 07:49:18;;;;;;;4.88;3.58;;;;;;;7.07;52.07;95461.28;4985272;28;20112;-79
2023/01/07 07:51:44;;;;;;;3.80;3.50;;;;;;;6.96;52.54;95452.63;4955339;28;20062;-79
2023/01/07 07:54:09;;;;;;;4.10;3.50;;;;;;;7.63;50.92;95452.81;4971211;28;20080;-79
2023/01/07 07:56:35;;;;;;;6.40;3.50;;;;;;;7.36;50.94;95449.44;4973959;28;20138;-79
2023/01/07 07:59:00;;;;;;;4.63;3.30;;;;;;;6.99;52.15;95449.66;4958761;28;20059;-79
2023/01/07 08:01:25;;;;;;;3.83;3.33;;;;;;;7.35;50.63;95447.78;4953741;28;20074;-79
2023/01/07 08:03:51;;;;;;;3.95;3.40;;;;;;;7.41;50.86;95444.47;4965806;28;20061;-79
2023/01/07 08:06:16;;;;;;;5.45;3.17;;;;;;;6.84;52.56;95444.13;4964235;28;20656;-79
2023/01/07 08:08:42;;;;;;;13.90;3.10;;;;;;;7.10;52.24;95440.59;4984410;28;20076;-79
2023/01/07 08:11:07;;;;;;;4.43;3.15;;;;;;;7.43;50.97;95445.16;4971877;28;20254;-79
2023/01/07 08:13:32;;;;;;;3.63;2.97;;;;;;;7.40;50.93;95437.53;4954392;28;20626;-79
2023/01/07 08:15:58;;;;;;;5.72;3.17;;;;;;;7.64;50.56;95436.75;4938255;28;20314;-79
2023/01/07 08:18:24;;;;;;;4.20;3.28;;;;;;;7.43;50.62;95433.72;4969133;28;20071;-79
2023/01/07 08:20:49;;;;;;;4.35;2.70;;;;;;;7.50;51.05;95432.94;4987240;28;20557;-79
2023/01/07 08:23:15;;;;;;;4.20;2.60;;;;;;;7.23;51.31;95426.91;4972045;28;20052;-79
2023/01/07 08:25:40;;;;;;;3.08;2.67;;;;;;;7.36;50.73;95423.81;4952616;28;20077;-79
2023/01/07 08:28:06;;;;;;;3.13;2.80;;;;;;;7.36;51.43;95423.81;4982762;28;20057;-79
2023/01/07 08:30:31;;;;;;;2.95;2.55;;;;;;;7.29;51.17;95420.13;4967055;28;20070;-78
2023/01/07 08:32:57;;;;;;;3.92;2.72;;;;;;;7.34;50.63;95424.97;4953096;28;20082;-79
2023/01/07 08:35:22;;;;;;;2.97;2.70;;;;;;;5.45;55.94;95417.38;4976677;28;20052;-79
2023/01/07 08:37:48;;;;;;;4.38;2.72;;;;;;;6.68;52.61;95420.25;4970350;28;20102;-79
2023/01/07 08:40:13;;;;;;;3.35;2.42;;;;;;;6.84;51.90;95408.91;4935785;28;20804;-79
2023/01/07 08:42:39;;;;;;;2.60;2.40;;;;;;;7.20;51.11;95414.00;4972311;28;20310;-79
2023/01/07 08:45:05;;;;;;;3.22;2.55;;;;;;;7.08;51.57;95412.63;4969237;28;20468;-79
2023/01/07 08:47:31;;;;;;;2.67;2.38;;;;;;;7.41;50.33;95420.66;4965975;28;20079;-79
2023/01/07 08:49:56;;;;;;;2.78;2.50;;;;;;;6.63;52.90;95407.50;4983660;28;20119;-79
2023/01/07 08:52:22;;;;;;;3.08;2.50;;;;;;;7.28;50.76;95403.41;4954275;28;20068;-68
2023/01/07 08:54:48;;;;;;;2.85;2.33;;;;;;;7.00;51.45;95395.75;4980336;28;20175;-67
2023/01/07 08:57:13;;;;;;;4.53;2.55;;;;;;;7.01;51.48;95394.75;4980036;28;20072;-69
2023/01/07 08:59:39;;;;;;;2.55;2.20;;;;;;;7.33;51.40;95394.16;4978769;28;20065;-68
2023/01/07 09:02:15;;;;;;;2.80;2.30;;;;;;;7.60;50.60;95382.44;4978409;28;20165;-67
2023/01/07 09:04:40;;;;;;;3.92;2.45;;;;;;;7.74;50.42;95383.59;4979210;28;20552;-69
2023/01/07 09:07:06;;;;;;;3.40;2.35;;;;;;;7.48;49.94;95381.13;4977395;28;20064;-69
2023/01/07 09:09:31;;;;;;;3.75;2.53;;;;;;;7.47;50.54;95382.91;4977052;28;20522;-68
2023/01/07 09:11:56;;;;;;;3.72;2.70;;;;;;;7.44;50.45;95372.66;4977339;28;20566;-67
2023/01/07 09:14:22;;;;;;;3.15;2.85;;;;;;;7.13;51.65;95373.25;4980914;28;20075;-68
2023/01/07 09:16:47;;;;;;;5.03;4.22;;;;;;;7.43;50.78;95368.34;4978290;28;20060;-68
2023/01/07 09:19:13;;;;;;;3.33;3.03;;;;;;;7.40;50.31;95379.25;4981186;28;20357;-68
2023/01/07 09:21:38;;;;;;;2.47;2.22;;;;;;;7.61;50.59;95364.69;4975447;28;20645;-69
2023/01/07 09:24:04;;;;;;;4.72;3.45;;;;;;;7.46;50.82;95365.38;4978587;28;20065;-67
2023/01/07 09:26:29;;;;;;;3.38;2.30;;;;;;;7.24;50.62;95370.31;4979761;28;20244;-69
2023/01/07 09:28:54;;;;;;;2.05;1.92;;;;;;;7.29;51.00;95367.19;4976992;28;20137;-68
2023/01/07 09:31:21;;;;;;;6.40;4.40;;;;;;;7.43;51.01;95360.41;4976990;28;20039;-69
2023/01/07 09:33:46;;;;;;;6.88;4.13;;;;;;;7.59;50.38;95364.91;4980065;28;20083;-68
2023/01/07 09:36:12;;;;;;;2.15;2.03;;;;;;;6.75;51.45;95366.56;4977624;28;20058;-67
2023/01/07 09:38:37;;;;;;;6.05;4.53;;;;;;;5.93;53.36;95370.41;4976325;28;20091;-67
2023/01/07 09:41:02;;;;;;;2.88;2.22;;;;;;;4.38;59.08;95373.81;4979055;28;20160;-67
2023/01/07 09:43:34;;;;;;;3.88;2.13;;;;;;;5.93;54.59;95364.28;4978818;28;20663;-68
2023/01/07 09:46:01;;;;;;;12.60;9.07;;;;;;;6.68;52.56;95368.19;4966852;28;20087;-68
2023/01/07 09:48:46;;;;;;;2.90;2.10;;;;;;;6.70;52.03;95370.66;4962121;28;20094;-68
2023/01/07 09:51:18;;;;;;;10.95;8.45;;;;;;;6.10;54.09;95371.34;4981307;28;20350;-68
2023/01/07 09:53:54;;;;;;;4.63;3.50;;;;;;;6.14;53.53;95371.84;4963968;28;20082;-68
2023/01/07 09:56:22;;;;;;;5.82;4.28;;;;;;;7.02;51.70;95364.66;4956232;28;20077;-68
2023/01/07 09:58:47;;;;;;;7.10;4.75;;;;;;;6.54;52.00;95369.63;4978796;28;20106;-68
2023/01/07 10:01:24;;;;;;;13.50;10.48;;;;;;;6.68;52.27;95368.19;4978954;28;20094;-68
2023/01/07 10:03:58;;;;;;;8.30;4.57;;;;;;;7.05;51.07;95368.78;4970658;28;20058;-68
2023/01/07 10:06:26;;;;;;;4.65;2.90;;;;;;;7.25;50.40;95366.66;4976886;28;20105;-68
2023/01/07 10:09:03;;;;;;;4.47;3.33;;;;;;;7.51;50.37;95362.22;4961666;28;20156;-68
2023/01/07 10:11:48;;;;;;;4.00;2.53;;;;;;;6.76;51.09;95354.97;4964953;28;20058;-68
2023/01/07 10:14:38;;;;;;;3.72;2.60;;;;;;;7.01;50.50;95356.88;4978822;28;20082;-68
2023/01/07 10:17:34;;;;;;;4.30;2.05;;;;;;;7.21;50.86;95345.97;4978660;28;20561;-68
2023/01/07 10:20:27;;;;;;;10.02;6.03;;;;;;;6.05;53.80;95352.47;4979098;28;20133;-69
2023/01/07 10:22:56;;;;;;;2.05;1.80;;;;;;;6.28;53.03;95351.09;4970155;28;20082;-68
2023/01/07 10:25:22;;;;;;;;;;;;;;;6.91;51.71;95346.44;4965836;28;20075;-67
2023/01/07 10:27:48;;;;;;;3.15;2.10;;;;;;;7.70;49.99;95329.28;4962155;28;19972;-68
2023/01/07 10:30:28;;;;;;;10.45;7.07;;;;;;;7.53;49.39;95342.53;4969238;28;20471;-68
2023/01/07 10:33:15;;;;;;;4.07;3.10;;;;;;;7.99;48.73;95330.59;4977513;28;20120;-68
2023/01/07 10:35:40;;;;;;;14.20;11.23;;;;;;;8.08;48.68;95325.25;4979053;28;20058;-68
2023/01/07 10:38:10;;;;;;;5.75;3.85;;;;;;;8.00;48.42;95326.13;4978737;28;20085;-68
2023/01/07 10:41:10;;;;;;;14.20;9.85;;;;;;;8.17;47.98;95311.81;4959491;28;20183;-67
2023/01/07 10:43:55;;;;;;;2.45;2.25;;;;;;;8.38;47.93;95294.53;4909075;28;20781;-67
2023/01/07 10:46:27;;;;;;;19.00;14.13;;;;;;;8.25;47.82;95291.56;4976182;28;20068;-67
2023/01/07 10:49:11;;;;;;;17.42;12.80;;;;;;;8.24;47.50;95288.09;4977546;28;20516;-68
2023/01/07 10:51:42;;;;;;;2.90;2.60;;;;;;;8.57;46.86;95279.19;4977645;28;20062;-68
2023/01/07 10:54:30;;;;;;;25.05;17.35;;;;;;;7.81;48.37;95282.25;4976301;28;20077;-67
2023/01/07 10:56:59;;;;;;;3.13;1.90;;;;;;;7.58;47.53;95280.28;4967655;28;20758;-67
2023/01/07 10:59:24;;;;;;;14.63;10.63;;;;;;;8.42;46.84;95279.06;4976455;28;20112;-68
2023/01/07 11:01:57;;;;;;;12.95;9.70;;;;;;;8.47;46.23;95273.25;4961982;28;20341;-68
2023/01/07 11:04:22;;;;;;;3.95;3.10;;;;;;;8.95;45.43;95251.94;4976475;28;20163;-68
2023/01/07 11:07:03;;;;;;;9.05;7.35;;;;;;;8.61;45.66;95256.59;4948767;28;20080;-68
2023/01/07 11:09:30;;;;;;;2.15;1.95;;;;;;;8.69;45.37;95247.75;4975283;28;20655;-69
2023/01/07 11:11:56;;;;;;;4.25;2.60;;;;;;;8.85;45.15;95252.16;4968294;28;20452;-69
2023/01/07 11:14:24;;;;;;;4.88;3.75;;;;;;;7.43;47.91;95254.47;4954253;28;20071;-69
2023/01/07 11:16:55;;;;;;;6.53;5.13;;;;;;;8.00;47.28;95252.72;4961674;28;20589;-68
2023/01/07 11:19:22;;;;;;;3.95;2.60;;;;;;;8.37;46.55;95244.28;4965435;28;20048;-68
2023/01/07 11:21:48;;;;;;;20.90;15.70;;;;;;;8.61;45.73;95234.53;4980856;28;20602;-68
2023/01/07 11:24:25;;;;;;;10.90;7.55;;;;;;;6.99;48.90;95232.63;4980901;28;20417;-69
2023/01/07 11:26:51;;;;;;;11.68;6.80;;;;;;;8.34;46.52;95234.03;4980171;28;20538;-68
2023/01/07 11:29:22;;;;;;;15.32;10.25;;;;;;;8.42;45.90;95226.03;4979514;28;20069;-69
2023/01/07 11:31:56;;;;;;;16.30;12.15;;;;;;;8.38;45.66;95219.41;4972167;28;20048;-68
2023/01/07 11:34:22;;;;;;;8.00;6.03;;;;;;;8.71;45.25;95224.53;4975415;28;20107;-69
2023/01/07 11:36:48;;;;;;;3.53;2.20;;;;;;;8.25;45.28;95223.44;4956764;28;20129;-69
2023/01/07 11:39:21;;;;;;;4.15;3.03;;;;;;;8.26;45.13;95227.75;4969278;28;20088;-68
2023/01/07 11:42:37;;;;;;;6.80;3.95;;;;;;;7.99;46.20;95213.94;4976054;28;20085;-68
2023/01/07 11:44:46;;;;;;;15.20;9.57;;;;;;;7.91;46.96;95216.63;4975357;28;20091;-69
2023/01/07 11:47:14;;;;;;;21.60;14.82;;;;;;;8.57;45.22;95211.00;4981449;28;20055;-69
2023/01/07 11:49:39;;;;;;;;;;;;;;;8.15;46.26;95218.34;4949354;28;20500;-68
2023/01/07 11:52:05;;;;;;;6.17;3.33;;;;;;;6.96;47.45;95190.59;4964621;28;19933;-68